createdAt,value
2022-10-18T00:01:07.021Z,99344.00
2022-10-18T00:03:40.699Z,99343.65
2022-10-18T00:06:09.397Z,99344.35
2022-10-18T00:08:39.008Z,99347.71
2022-10-18T00:11:07.764Z,99341.73
2022-10-18T00:13:35.960Z,99339.23
2022-10-18T00:16:09.848Z,99338.70
2022-10-18T00:18:37.755Z,99341.05
2022-10-18T00:21:14.683Z,99340.46
2022-10-18T00:23:43.612Z,99342.27
2022-10-18T00:26:30.724Z,99338.34
2022-10-18T00:29:03.438Z,99330.88
2022-10-18T00:31:36.292Z,99327.91
2022-10-18T00:34:11.135Z,99330.07
2022-10-18T00:36:39.258Z,99325.19
2022-10-18T00:39:09.445Z,99324.83
2022-10-18T00:41:38.116Z,99322.08
2022-10-18T00:44:27.778Z,99322.55
2022-10-18T00:47:08.895Z,99321.73
2022-10-18T00:49:42.127Z,99321.50
2022-10-18T00:52:35.208Z,99320.59
2022-10-18T00:55:05.761Z,99320.63
2022-10-18T00:57:34.474Z,99324.55
2022-10-18T01:00:07.576Z,99321.17
2022-10-18T01:02:41.159Z,99319.90
2022-10-18T01:05:12.236Z,99312.81
2022-10-18T01:08:09.003Z,99307.15
2022-10-18T01:11:21.123Z,99311.24
2022-10-18T01:14:39.430Z,99307.67
2022-10-18T01:17:26.646Z,99303.27
2022-10-18T01:20:28.394Z,99295.92
2022-10-18T01:23:06.505Z,99296.08
2022-10-18T01:25:43.286Z,99294.37
2022-10-18T01:28:46.214Z,99288.48
2022-10-18T01:31:34.357Z,99284.82
2022-10-18T01:34:05.456Z,99280.30
2022-10-18T01:36:37.994Z,99282.17
2022-10-18T01:39:10.919Z,99281.77
2022-10-18T01:41:41.395Z,99281.37
2022-10-18T01:44:14.578Z,99279.56
2022-10-18T01:46:44.195Z,99278.73
2022-10-18T01:49:12.059Z,99272.40
2022-10-18T01:51:40.105Z,99272.45
2022-10-18T01:54:10.144Z,99268.66
2022-10-18T01:56:43.288Z,99267.30
2022-10-18T01:59:11.195Z,99266.30
2022-10-18T02:01:53.149Z,99261.67
2022-10-18T02:04:40.938Z,99259.30
2022-10-18T02:07:21.605Z,99256.77
2022-10-18T02:10:06.079Z,99259.21
2022-10-18T02:12:34.936Z,99260.98
2022-10-18T02:15:07.310Z,99262.38
2022-10-18T02:17:35.787Z,99262.92
2022-10-18T02:20:06.492Z,99264.15
2022-10-18T02:22:36.539Z,99261.21
2022-10-18T02:25:10.781Z,99259.79
2022-10-18T02:27:38.673Z,99260.84
2022-10-18T02:30:07.348Z,99258.10
2022-10-18T02:32:41.144Z,99253.95
2022-10-18T02:35:18.016Z,99253.60
2022-10-18T02:37:48.862Z,99253.03
2022-10-18T02:40:18.004Z,99255.77
2022-10-18T02:42:53.648Z,99253.52
2022-10-18T02:45:21.778Z,99252.11
2022-10-18T02:47:49.662Z,99251.75
2022-10-18T02:50:18.272Z,99247.56
2022-10-18T02:52:46.197Z,99242.02
2022-10-18T02:55:14.026Z,99243.95
2022-10-18T02:57:41.905Z,99239.42
2022-10-18T03:00:10.718Z,99237.34
2022-10-18T03:02:38.512Z,99238.52
2022-10-18T03:05:06.760Z,99241.41
2022-10-18T03:07:34.950Z,99243.09
2022-10-18T03:10:03.258Z,99241.48
2022-10-18T03:12:31.066Z,99242.77
2022-10-18T03:14:59.010Z,99241.14
2022-10-18T03:17:27.052Z,99242.48
2022-10-18T03:19:54.883Z,99244.52
2022-10-18T03:22:22.954Z,99243.35
2022-10-18T03:24:50.914Z,99241.17
2022-10-18T03:27:18.781Z,99237.80
2022-10-18T03:29:46.761Z,99238.22
2022-10-18T03:32:14.745Z,99239.36
2022-10-18T03:34:42.597Z,99242.27
2022-10-18T03:37:10.471Z,99238.73
2022-10-18T03:39:38.270Z,99238.79
2022-10-18T03:42:06.145Z,99238.32
2022-10-18T03:44:33.934Z,99236.12
2022-10-18T03:47:01.925Z,99235.38
2022-10-18T03:49:29.841Z,99234.77
2022-10-18T03:51:57.725Z,99237.17
2022-10-18T03:54:25.566Z,99236.01
2022-10-18T03:56:53.459Z,99235.34
2022-10-18T03:59:22.685Z,99235.52
2022-10-18T04:01:50.792Z,99232.28
2022-10-18T04:04:18.873Z,99230.27
2022-10-18T04:06:46.732Z,99227.50
2022-10-18T04:09:14.741Z,99229.77
2022-10-18T04:11:42.651Z,99232.42
2022-10-18T04:14:10.499Z,99230.96
2022-10-18T04:16:38.442Z,99232.02
2022-10-18T04:19:06.256Z,99228.88
2022-10-18T04:21:34.108Z,99227.30
2022-10-18T04:24:01.953Z,99225.71
2022-10-18T04:26:29.846Z,99225.88
2022-10-18T04:28:57.903Z,99229.01
2022-10-18T04:31:25.824Z,99228.83
2022-10-18T04:33:53.937Z,99224.50
2022-10-18T04:36:21.935Z,99223.12
2022-10-18T04:38:49.753Z,99224.17
2022-10-18T04:41:17.640Z,99217.58
2022-10-18T04:46:18.505Z,99213.66
2022-10-18T04:48:46.457Z,99214.59
2022-10-18T04:51:14.320Z,99213.20
2022-10-18T04:53:42.195Z,99215.96
2022-10-18T04:56:10.073Z,99216.63
2022-10-18T04:58:37.947Z,99218.80
2022-10-18T05:01:08.586Z,99225.35
2022-10-18T05:03:36.470Z,99222.93
2022-10-18T05:06:05.508Z,99225.46
2022-10-18T05:08:35.275Z,99222.48
2022-10-18T05:11:04.656Z,99219.64
2022-10-18T05:13:32.606Z,99220.27
2022-10-18T05:16:00.883Z,99221.77
2022-10-18T05:18:28.842Z,99223.98
2022-10-18T05:20:57.008Z,99223.77
2022-10-18T05:23:25.204Z,99226.75
2022-10-18T05:25:54.636Z,99227.47
2022-10-18T05:28:41.133Z,99228.08
2022-10-18T05:31:10.314Z,99225.79
2022-10-18T05:33:38.455Z,99222.87
2022-10-18T05:36:06.720Z,99223.02
2022-10-18T05:41:07.565Z,99224.97
2022-10-18T05:43:35.515Z,99226.29
2022-10-18T05:46:04.817Z,99226.77
2022-10-18T05:48:32.659Z,99225.39
2022-10-18T05:51:01.018Z,99228.15
2022-10-18T05:53:36.657Z,99229.17
2022-10-18T05:56:05.694Z,99231.26
2022-10-18T05:58:34.118Z,99233.84
2022-10-18T06:01:02.472Z,99233.31
2022-10-18T06:03:31.035Z,99234.33
2022-10-18T06:06:04.505Z,99236.53
2022-10-18T06:08:33.285Z,99235.81
2022-10-18T06:11:06.912Z,99240.30
2022-10-18T06:13:34.909Z,99237.95
2022-10-18T06:16:02.771Z,99237.47
2022-10-18T06:18:30.675Z,99238.42
2022-10-18T06:20:59.614Z,99240.61
2022-10-18T06:23:28.429Z,99241.37
2022-10-18T06:26:05.057Z,99240.70
2022-10-18T06:28:35.160Z,99235.63
2022-10-18T06:31:04.165Z,99233.45
2022-10-18T06:33:33.887Z,99233.21
2022-10-18T06:36:05.077Z,99231.93
2022-10-18T06:38:33.160Z,99229.23
2022-10-18T06:41:01.061Z,99226.63
2022-10-18T06:43:29.061Z,99225.08
2022-10-18T06:45:56.962Z,99222.60
2022-10-18T06:48:25.016Z,99224.45
2022-10-18T06:50:58.048Z,99219.16
2022-10-18T06:53:28.034Z,99221.80
2022-10-18T06:56:03.964Z,99219.92
2022-10-18T06:58:32.722Z,99213.91
2022-10-18T07:01:06.911Z,99215.70
2022-10-18T07:03:35.474Z,99213.45
2022-10-18T07:06:04.946Z,99211.18
2022-10-18T07:08:33.566Z,99209.91
2022-10-18T07:11:02.052Z,99206.36
2022-10-18T07:13:33.225Z,99204.88
2022-10-18T07:16:03.678Z,99204.95
2022-10-18T07:18:34.367Z,99204.09
2022-10-18T07:21:04.285Z,99199.59
2022-10-18T07:23:34.243Z,99196.95
2022-10-18T07:26:04.576Z,99196.35
2022-10-18T07:28:32.442Z,99193.95
2022-10-18T07:31:08.833Z,99191.66
2022-10-18T07:33:38.222Z,99190.59
2022-10-18T07:36:08.908Z,99187.36
2022-10-18T07:38:37.104Z,99183.51
2022-10-18T07:41:07.120Z,99186.58
2022-10-18T07:43:36.044Z,99185.22
2022-10-18T07:46:05.669Z,99177.58
2022-10-18T07:48:33.534Z,99171.99
2022-10-18T07:51:02.262Z,99174.82
2022-10-18T07:53:30.779Z,99176.99
2022-10-18T07:56:00.760Z,99170.24
2022-10-18T07:58:32.465Z,99167.56
2022-10-18T08:01:08.654Z,99160.27
2022-10-18T08:03:37.269Z,99162.56
2022-10-18T08:06:08.867Z,99159.86
2022-10-18T08:08:38.780Z,99158.52
2022-10-18T08:11:18.276Z,99159.28
2022-10-18T08:13:46.655Z,99160.16
2022-10-18T08:16:17.587Z,99159.08
2022-10-18T08:18:45.677Z,99154.13
2022-10-18T08:21:18.105Z,99151.44
2022-10-18T08:23:46.813Z,99151.56
2022-10-18T08:26:17.261Z,99145.89
2022-10-18T08:28:53.673Z,99143.33
2022-10-18T08:31:28.450Z,99142.13
2022-10-18T08:34:00.151Z,99145.18
2022-10-18T08:36:28.419Z,99144.10
2022-10-18T08:38:56.297Z,99138.45
2022-10-18T08:41:48.340Z,99137.55
2022-10-18T08:44:26.454Z,99132.46
2022-10-18T08:47:14.931Z,99130.64
2022-10-18T08:49:47.034Z,99125.80
2022-10-18T08:55:36.651Z,99120.42
2022-10-18T08:58:21.567Z,99118.34
2022-10-18T09:01:39.499Z,99116.63
2022-10-18T09:04:15.965Z,99106.81
2022-10-18T09:07:02.087Z,99105.73
2022-10-18T09:09:54.572Z,99101.55
2022-10-18T09:12:43.977Z,99093.70
2022-10-18T09:15:16.033Z,99092.58
2022-10-18T09:18:08.301Z,99087.87
2022-10-18T09:20:51.092Z,99084.24
2022-10-18T09:23:20.513Z,99080.50
2022-10-18T09:25:53.132Z,99077.91
2022-10-18T09:28:42.748Z,99075.61
2022-10-18T09:31:17.945Z,99066.27
2022-10-18T09:33:50.002Z,99063.94
2022-10-18T09:36:24.558Z,99058.73
2022-10-18T09:39:00.494Z,99053.84
2022-10-18T09:41:31.255Z,99050.90
2022-10-18T09:44:06.843Z,99048.06
2022-10-18T09:46:40.924Z,99043.34
2022-10-18T09:49:18.756Z,99039.48
2022-10-18T09:51:49.577Z,99038.76
2022-10-18T09:54:45.133Z,99034.02
2022-10-18T09:57:21.714Z,99033.20
2022-10-18T09:59:50.907Z,99027.58
2022-10-18T10:02:23.781Z,99028.76
2022-10-18T10:04:54.270Z,99027.21
2022-10-18T10:07:35.053Z,99023.70
2022-10-18T10:10:08.697Z,99021.26
2022-10-18T10:12:39.202Z,99016.81
2022-10-18T10:15:31.293Z,99011.98
2022-10-18T10:18:05.158Z,99006.37
2022-10-18T10:20:45.345Z,99000.63
2022-10-18T10:23:19.677Z,98989.30
2022-10-18T10:26:00.908Z,98991.29
2022-10-18T10:28:41.027Z,98986.45
2022-10-18T10:31:31.321Z,98982.38
2022-10-18T10:34:01.884Z,98978.68
2022-10-18T10:36:30.856Z,98970.54
2022-10-18T10:39:18.797Z,98967.08
2022-10-18T10:41:55.835Z,98964.00
2022-10-18T10:44:27.544Z,98959.52
2022-10-18T10:46:56.344Z,98954.95
2022-10-18T10:49:40.231Z,98950.05
2022-10-18T10:52:28.628Z,98944.17
2022-10-18T10:55:16.955Z,98938.64
2022-10-18T10:57:48.613Z,98928.58
2022-10-18T11:00:39.763Z,98921.41
2022-10-18T11:03:33.802Z,98918.52
2022-10-18T11:06:02.104Z,98910.10
2022-10-18T11:08:41.729Z,98902.86
2022-10-18T11:11:32.586Z,98902.30
2022-10-18T11:14:25.139Z,98896.45
2022-10-18T11:17:13.054Z,98891.02
2022-10-18T11:20:03.503Z,98885.33
2022-10-18T11:22:38.834Z,98876.05
2022-10-18T11:25:12.563Z,98875.02
2022-10-18T11:28:00.421Z,98871.70
2022-10-18T11:30:37.863Z,98868.89
2022-10-18T11:33:56.220Z,98861.02
2022-10-18T11:36:33.970Z,98856.55
2022-10-18T11:39:27.344Z,98851.50
2022-10-18T11:42:28.398Z,98846.64
2022-10-18T11:45:11.114Z,98841.20
2022-10-18T11:47:52.210Z,98838.17
2022-10-18T11:50:34.797Z,98831.20
2022-10-18T11:53:08.442Z,98823.59
2022-10-18T11:56:00.722Z,98815.92
2022-10-18T11:58:46.567Z,98811.63
2022-10-18T12:01:28.503Z,98808.08
2022-10-18T12:03:56.808Z,98799.91
2022-10-18T12:06:30.808Z,98795.38
2022-10-18T12:09:15.388Z,98790.16
2022-10-18T12:12:01.519Z,98788.15
2022-10-18T12:15:17.177Z,98783.77
2022-10-18T12:17:54.031Z,98779.31
2022-10-18T12:20:30.216Z,98776.37
2022-10-18T12:23:01.345Z,98777.13
2022-10-18T12:25:32.625Z,98776.39
2022-10-18T12:28:23.647Z,98773.80
2022-10-18T12:31:14.704Z,98769.20
2022-10-18T12:33:48.225Z,98768.77
2022-10-18T12:36:22.222Z,98767.27
2022-10-18T12:38:57.274Z,98759.89
2022-10-18T12:41:28.575Z,98758.16
2022-10-18T12:44:02.745Z,98752.55
2022-10-18T12:46:48.574Z,98750.14
2022-10-18T12:49:24.449Z,98747.64
2022-10-18T12:51:59.663Z,98749.20
2022-10-18T12:54:33.271Z,98744.20
2022-10-18T12:57:02.828Z,98744.02
2022-10-18T12:59:30.604Z,98738.69
2022-10-18T13:02:20.716Z,98733.13
2022-10-18T13:04:49.317Z,98732.21
2022-10-18T13:07:30.638Z,98728.38
2022-10-18T13:10:10.589Z,98723.33
2022-10-18T13:12:47.421Z,98719.47
2022-10-18T13:15:46.558Z,98714.67
2022-10-18T13:18:26.749Z,98710.70
2022-10-18T13:21:29.874Z,98707.42
2022-10-18T13:24:24.287Z,98705.11
2022-10-18T13:27:35.077Z,98705.12
2022-10-18T13:30:18.543Z,98698.19
2022-10-18T13:32:46.486Z,98692.08
2022-10-18T13:35:55.217Z,98687.60
2022-10-18T13:38:47.798Z,98682.27
2022-10-18T13:41:40.577Z,98680.66
2022-10-18T13:44:26.011Z,98675.13
2022-10-18T13:46:56.848Z,98676.92
2022-10-18T13:49:39.807Z,98677.12
2022-10-18T13:52:37.852Z,98671.77
2022-10-18T13:55:32.654Z,98667.58
2022-10-18T13:58:08.385Z,98661.89
2022-10-18T14:00:49.466Z,98658.02
2022-10-18T14:03:56.808Z,98653.60
2022-10-18T14:06:33.546Z,98649.30
2022-10-18T14:09:25.977Z,98651.30
2022-10-18T14:12:16.550Z,98645.38
2022-10-18T14:14:50.331Z,98642.52
2022-10-18T14:17:35.947Z,98639.86
2022-10-18T14:20:27.338Z,98636.91
2022-10-18T14:23:16.009Z,98633.44
2022-10-18T14:25:44.443Z,98633.47
2022-10-18T14:28:21.733Z,98633.45
2022-10-18T14:31:02.090Z,98634.05
2022-10-18T14:33:41.657Z,98630.45
2022-10-18T14:36:16.284Z,98626.52
2022-10-18T14:39:02.309Z,98625.26
2022-10-18T14:41:31.276Z,98620.16
2022-10-18T14:44:14.478Z,98620.23
2022-10-18T14:47:03.285Z,98617.30
2022-10-18T14:49:31.238Z,98616.40
2022-10-18T14:52:00.503Z,98615.98
2022-10-18T14:54:32.907Z,98617.71
2022-10-18T14:57:02.191Z,98615.27
2022-10-18T14:59:33.894Z,98611.56
2022-10-18T15:02:10.266Z,98609.42
2022-10-18T15:04:38.167Z,98612.95
2022-10-18T15:07:14.608Z,98613.45
2022-10-18T15:09:45.148Z,98614.44
2022-10-18T15:12:15.206Z,98612.38
2022-10-18T15:14:43.822Z,98609.92
2022-10-18T15:17:24.677Z,98606.55
2022-10-18T15:20:20.872Z,98609.15
2022-10-18T15:22:49.139Z,98607.95
2022-10-18T15:25:35.939Z,98604.83
2022-10-18T15:28:03.766Z,98602.36
2022-10-18T15:30:39.315Z,98604.83
2022-10-18T15:33:10.980Z,98603.16
2022-10-18T15:35:39.158Z,98602.48
2022-10-18T15:38:33.267Z,98601.91
2022-10-18T15:41:01.103Z,98600.58
2022-10-18T15:43:28.951Z,98601.23
2022-10-18T15:46:05.144Z,98600.86
2022-10-18T15:48:38.548Z,98599.35
2022-10-18T15:51:33.976Z,98597.48
2022-10-18T15:54:01.794Z,98601.58
2022-10-18T15:56:32.704Z,98600.54
2022-10-18T15:59:04.506Z,98601.02
2022-10-18T16:01:36.804Z,98603.80
2022-10-18T16:04:09.570Z,98602.83
2022-10-18T16:06:38.702Z,98606.50
2022-10-18T16:09:06.664Z,98607.85
2022-10-18T16:11:34.538Z,98611.70
2022-10-18T16:14:02.444Z,98615.34
2022-10-18T16:16:30.402Z,98615.13
2022-10-18T16:18:58.257Z,98613.74
2022-10-18T16:21:29.059Z,98614.05
2022-10-18T16:23:57.164Z,98609.40
2022-10-18T16:26:26.068Z,98609.23
2022-10-18T16:28:55.073Z,98608.75
2022-10-18T16:31:25.514Z,98606.36
2022-10-18T16:33:54.878Z,98603.79
2022-10-18T16:36:25.658Z,98602.98
2022-10-18T16:38:55.068Z,98602.93
2022-10-18T16:41:24.649Z,98603.48
2022-10-18T16:43:52.679Z,98602.38
2022-10-18T16:46:23.301Z,98601.04
2022-10-18T16:48:51.727Z,98603.36
2022-10-18T16:51:20.329Z,98607.39
2022-10-18T16:53:48.603Z,98604.21
2022-10-18T16:56:22.560Z,98602.02
2022-10-18T16:58:50.497Z,98602.36
2022-10-18T17:01:20.382Z,98601.80
2022-10-18T17:03:48.645Z,98596.60
2022-10-18T17:06:20.652Z,98598.75
2022-10-18T17:08:49.302Z,98601.20
2022-10-18T17:11:18.457Z,98601.27
2022-10-18T17:13:46.713Z,98602.50
2022-10-18T17:16:32.047Z,98599.86
2022-10-18T17:19:02.671Z,98599.23
2022-10-18T17:21:33.428Z,98599.82
2022-10-18T17:24:03.130Z,98597.23
2022-10-18T17:26:31.563Z,98595.33
2022-10-18T17:29:01.853Z,98597.41
2022-10-18T17:31:30.958Z,98599.00
2022-10-18T17:34:01.736Z,98599.42
2022-10-18T17:36:31.854Z,98595.21
2022-10-18T17:38:59.871Z,98594.79
2022-10-18T17:41:28.098Z,98592.27
2022-10-18T17:43:56.424Z,98587.99
2022-10-18T17:46:24.437Z,98588.05
2022-10-18T17:48:53.503Z,98588.21
2022-10-18T17:51:22.697Z,98589.33
2022-10-18T17:53:50.690Z,98588.73
2022-10-18T17:56:18.649Z,98587.95
2022-10-18T17:58:50.594Z,98589.77
2022-10-18T18:01:21.869Z,98591.97
2022-10-18T18:03:50.845Z,98589.11
2022-10-18T18:06:30.998Z,98585.46
2022-10-18T18:09:10.667Z,98582.20
2022-10-18T18:11:40.988Z,98583.45
2022-10-18T18:14:10.254Z,98580.14
2022-10-18T18:16:41.309Z,98578.47
2022-10-18T18:19:10.655Z,98573.69
2022-10-18T18:21:39.877Z,98572.76
2022-10-18T18:24:10.894Z,98571.35
2022-10-18T18:26:40.333Z,98572.73
2022-10-18T18:29:08.428Z,98568.69
2022-10-18T18:31:40.001Z,98568.80
2022-10-18T18:34:10.526Z,98564.62
2022-10-18T18:36:38.636Z,98564.39
2022-10-18T18:39:08.900Z,98567.23
2022-10-18T18:41:38.576Z,98570.09
2022-10-18T18:44:06.859Z,98571.58
2022-10-18T18:46:39.508Z,98568.64
2022-10-18T18:49:08.263Z,98566.52
2022-10-18T18:51:38.482Z,98563.31
2022-10-18T18:54:11.443Z,98564.52
2022-10-18T18:56:40.147Z,98565.11
2022-10-18T18:59:08.803Z,98563.40
2022-10-18T19:01:38.077Z,98560.55
2022-10-18T19:04:08.005Z,98557.15
2022-10-18T19:06:38.700Z,98550.84
2022-10-18T19:09:18.557Z,98548.80
2022-10-18T19:11:48.387Z,98549.67
2022-10-18T19:14:16.855Z,98552.06
2022-10-18T19:16:50.602Z,98552.74
2022-10-18T19:19:20.897Z,98550.61
2022-10-18T19:21:52.323Z,98550.92
2022-10-18T19:24:21.637Z,98549.63
2022-10-18T19:26:52.953Z,98545.91
2022-10-18T19:29:27.206Z,98544.42
2022-10-18T19:31:58.207Z,98542.59
2022-10-18T19:34:28.721Z,98543.09
2022-10-18T19:36:57.095Z,98539.34
2022-10-18T19:39:30.516Z,98535.54
2022-10-18T19:42:00.684Z,98528.31
2022-10-18T19:44:31.138Z,98525.61
2022-10-18T19:46:59.526Z,98526.01
2022-10-18T19:49:28.807Z,98526.48
2022-10-18T19:51:57.500Z,98525.90
2022-10-18T19:54:26.169Z,98524.78
2022-10-18T19:56:54.517Z,98522.73
2022-10-18T19:59:23.316Z,98521.04
2022-10-18T20:01:51.258Z,98518.77
2022-10-18T20:04:19.162Z,98519.71
2022-10-18T20:06:47.579Z,98517.64
2022-10-18T20:09:19.399Z,98516.52
2022-10-18T20:11:48.703Z,98517.17
2022-10-18T20:14:16.476Z,98517.79
2022-10-18T20:16:44.292Z,98515.68
2022-10-18T20:19:12.361Z,98515.94
2022-10-18T20:21:40.370Z,98512.39
2022-10-18T20:24:09.562Z,98507.91
2022-10-18T20:26:37.778Z,98507.89
2022-10-18T20:29:07.630Z,98505.02
2022-10-18T20:31:38.536Z,98504.30
2022-10-18T20:34:11.448Z,98496.30
2022-10-18T20:36:40.956Z,98492.43
2022-10-18T20:39:09.687Z,98492.20
2022-10-18T20:41:41.052Z,98490.86
2022-10-18T20:44:14.610Z,98492.95
2022-10-18T20:46:43.976Z,98488.52
2022-10-18T20:49:16.001Z,98487.55
2022-10-18T20:51:43.963Z,98485.77
2022-10-18T20:54:12.304Z,98482.92
2022-10-18T20:56:40.186Z,98480.70
2022-10-18T20:59:09.997Z,98477.20
2022-10-18T21:01:39.343Z,98479.65
2022-10-18T21:04:10.042Z,98474.06
2022-10-18T21:06:41.117Z,98467.79
2022-10-18T21:09:19.720Z,98466.48
2022-10-18T21:11:49.969Z,98462.42
2022-10-18T21:14:19.864Z,98462.98
2022-10-18T21:16:48.802Z,98463.79
2022-10-18T21:19:18.797Z,98464.79
2022-10-18T21:21:50.308Z,98467.09
2022-10-18T21:24:19.897Z,98464.30
2022-10-18T21:26:48.248Z,98459.14
2022-10-18T21:29:21.532Z,98457.13
2022-10-18T21:31:54.134Z,98457.21
2022-10-18T21:34:22.113Z,98452.30
2022-10-18T21:36:49.889Z,98446.64
2022-10-18T21:41:55.619Z,98435.58
2022-10-18T21:44:23.674Z,98435.64
2022-10-18T21:46:51.734Z,98435.83
2022-10-18T21:49:19.583Z,98438.52
2022-10-18T21:51:47.485Z,98434.64
2022-10-18T21:54:16.687Z,98432.70
2022-10-18T21:56:44.575Z,98427.98
2022-10-18T21:59:13.497Z,98427.95
2022-10-18T22:01:43.573Z,98424.30
2022-10-18T22:04:22.734Z,98423.42
2022-10-18T22:06:51.057Z,98414.63
2022-10-18T22:09:19.764Z,98414.17
2022-10-18T22:11:51.312Z,98413.40
2022-10-18T22:14:19.302Z,98412.79
2022-10-18T22:16:47.061Z,98410.39
2022-10-18T22:19:14.983Z,98409.23
2022-10-18T22:21:42.811Z,98410.66
2022-10-18T22:24:10.589Z,98410.47
2022-10-18T22:26:41.088Z,98411.12
2022-10-18T22:29:13.154Z,98411.67
2022-10-18T22:31:44.662Z,98411.70
2022-10-18T22:34:15.692Z,98412.08
2022-10-18T22:36:43.768Z,98409.36
2022-10-18T22:39:14.355Z,98410.84
2022-10-18T22:41:42.800Z,98410.35
2022-10-18T22:44:12.843Z,98406.64
2022-10-18T22:46:42.015Z,98399.27
2022-10-18T22:49:11.030Z,98397.89
2022-10-18T22:51:40.130Z,98397.94
2022-10-18T22:54:08.339Z,98394.96
2022-10-18T22:56:36.234Z,98398.80
2022-10-18T22:59:04.097Z,98399.84
2022-10-18T23:01:31.901Z,98397.29
2022-10-18T23:04:00.642Z,98396.35
2022-10-18T23:06:29.713Z,98389.79
2022-10-18T23:09:00.638Z,98382.09
2022-10-18T23:11:29.282Z,98381.96
2022-10-18T23:13:57.183Z,98380.73
2022-10-18T23:16:25.291Z,98374.54
2022-10-18T23:18:55.137Z,98368.39
2022-10-18T23:21:25.261Z,98360.73
2022-10-18T23:23:54.020Z,98355.48
2022-10-18T23:26:23.879Z,98361.73
2022-10-18T23:28:53.590Z,98370.52
2022-10-18T23:31:26.772Z,98365.48
2022-10-18T23:33:56.781Z,98357.17
2022-10-18T23:36:25.450Z,98356.98
2022-10-18T23:38:54.520Z,98363.65
2022-10-18T23:41:23.205Z,98360.38
2022-10-18T23:43:51.588Z,98358.93
2022-10-18T23:46:19.867Z,98356.38
2022-10-18T23:48:48.417Z,98356.06
2022-10-18T23:51:17.399Z,98355.25
2022-10-18T23:53:45.320Z,98354.11
2022-10-18T23:56:15.512Z,98352.63
2022-10-18T23:58:44.706Z,98350.62
